Time;durP1;ratioP1;P1;durP2;ratioP2;P2;SDS_P1;SDS_P2;PMS_P1;PMS_P2;Temp;Humidity;BMP_temperature;BMP_pressure;BME280_temperature;BME280_humidity;BME280_pressure;Samples;Min_cycle;Max_cycle;Signal;HPM_P1;HPM_P2
2023/05/18 00:02:02;;;;;;;5.10;0.70;;;20.70;1.00;;;;;;4842949;29;20060;-41
2023/05/18 00:04:32;;;;;;;1.92;0.45;;;20.70;1.00;;;;;;4843725;29;20076;-41
2023/05/18 00:07:02;;;;;;;3.15;0.63;;;20.70;1.00;;;;;;4842771;29;20499;-41
2023/05/18 00:09:30;;;;;;;4.38;0.68;;;20.60;1.00;;;;;;4842504;29;20110;-42
2023/05/18 00:11:58;;;;;;;1.90;0.60;;;20.60;1.00;;;;;;4835072;29;20121;-41
2023/05/18 00:14:25;;;;;;;5.05;0.45;;;20.60;1.00;;;;;;4842768;29;20121;-41
2023/05/18 00:16:53;;;;;;;1.75;0.55;;;20.60;1.00;;;;;;4842291;29;20121;-41
2023/05/18 00:19:22;;;;;;;1.65;0.50;;;20.60;1.00;;;;;;4842462;29;20052;-41
2023/05/18 00:21:51;;;;;;;1.38;0.90;;;20.50;1.00;;;;;;4842345;29;20046;-41
2023/05/18 00:24:18;;;;;;;3.00;0.82;;;20.50;1.00;;;;;;4842090;29;20050;-41
2023/05/18 00:26:47;;;;;;;2.88;0.60;;;20.50;1.00;;;;;;4834719;29;20058;-40
2023/05/18 00:29:14;;;;;;;2.72;0.85;;;20.50;1.00;;;;;;4842320;29;20513;-41
2023/05/18 00:31:43;;;;;;;4.00;1.02;;;20.50;1.00;;;;;;4841080;29;20049;-41
2023/05/18 00:34:12;;;;;;;3.42;0.93;;;20.40;1.00;;;;;;4839433;29;20046;-43
2023/05/18 00:36:40;;;;;;;0.88;0.40;;;20.40;1.00;;;;;;4828022;29;20098;-41
2023/05/18 00:39:08;;;;;;;1.85;0.43;;;20.40;1.00;;;;;;4842779;29;20075;-41
2023/05/18 00:41:35;;;;;;;2.30;0.93;;;20.40;1.00;;;;;;4843432;29;20478;-40
2023/05/18 00:44:03;;;;;;;1.63;0.60;;;20.40;1.00;;;;;;4840707;29;20106;-41
2023/05/18 00:46:30;;;;;;;3.92;0.57;;;20.40;1.00;;;;;;4842499;29;20054;-41
2023/05/18 00:48:58;;;;;;;3.22;0.70;;;20.30;1.00;;;;;;4842264;29;20054;-41
2023/05/18 00:51:25;;;;;;;2.85;0.60;;;20.30;1.00;;;;;;4845134;29;20561;-42
2023/05/18 00:53:53;;;;;;;2.45;1.10;;;20.30;1.00;;;;;;4845480;29;20046;-41
2023/05/18 00:56:25;;;;;;;2.47;0.70;;;20.30;1.00;;;;;;4843577;29;20494;-42
2023/05/18 00:58:54;;;;;;;1.88;0.65;;;20.30;1.00;;;;;;4844180;29;20060;-41
2023/05/18 01:01:29;;;;;;;1.98;0.52;;;20.30;1.00;;;;;;4844363;29;20522;-41
2023/05/18 01:04:00;;;;;;;1.33;0.60;;;20.20;1.00;;;;;;4845264;29;20042;-41
2023/05/18 01:06:39;;;;;;;3.85;0.73;;;20.20;1.00;;;;;;4845398;29;20060;-41
2023/05/18 01:09:09;;;;;;;5.28;0.45;;;20.20;1.00;;;;;;4847481;29;20056;-42
2023/05/18 01:12:11;;;;;;;3.85;0.90;;;20.20;1.00;;;;;;4845594;29;20463;-42
2023/05/18 01:15:07;;;;;;;3.05;0.75;;;20.20;1.00;;;;;;4843742;29;20050;-43
2023/05/18 01:17:49;;;;;;;2.40;0.93;;;20.10;1.00;;;;;;4837963;29;20414;-41
2023/05/18 01:20:22;;;;;;;2.65;0.52;;;20.10;1.00;;;;;;4838214;29;20050;-43
2023/05/18 01:23:09;;;;;;;2.78;0.60;;;20.10;1.00;;;;;;4845223;29;20386;-41
2023/05/18 01:25:47;;;;;;;2.47;0.65;;;20.10;1.00;;;;;;4837462;29;20053;-42
2023/05/18 01:28:18;;;;;;;1.02;0.43;;;20.10;1.00;;;;;;4843505;29;20042;-42
2023/05/18 01:30:46;;;;;;;1.92;1.13;;;20.00;1.00;;;;;;4830215;29;20054;-43
2023/05/18 01:33:13;;;;;;;1.38;0.65;;;20.00;1.00;;;;;;4843313;29;20052;-42
2023/05/18 01:35:40;;;;;;;1.65;0.60;;;20.00;1.00;;;;;;4844653;29;20567;-41
2023/05/18 01:38:07;;;;;;;3.25;0.50;;;20.00;1.00;;;;;;4844671;29;20536;-41
2023/05/18 01:41:10;;;;;;;3.70;0.55;;;20.00;1.00;;;;;;4844571;29;20525;-42
2023/05/18 01:43:44;;;;;;;2.55;0.50;;;20.00;1.00;;;;;;4831962;29;20061;-42
2023/05/18 01:46:14;;;;;;;2.13;1.10;;;20.00;1.00;;;;;;4843508;29;20144;-41
2023/05/18 01:48:47;;;;;;;2.03;0.63;;;19.90;1.00;;;;;;4843504;29;20120;-42
2023/05/18 01:51:19;;;;;;;2.33;0.93;;;19.90;1.00;;;;;;4843052;29;20106;-42
2023/05/18 01:53:59;;;;;;;2.17;0.40;;;19.90;1.00;;;;;;4843182;29;20050;-41
2023/05/18 01:56:26;;;;;;;1.65;0.47;;;19.90;1.00;;;;;;4843568;29;20076;-42
2023/05/18 01:58:54;;;;;;;1.50;0.60;;;19.90;1.00;;;;;;4833183;29;20110;-42
2023/05/18 02:01:22;;;;;;;2.38;0.70;;;19.90;1.00;;;;;;4842439;29;20110;-41
2023/05/18 02:03:50;;;;;;;2.88;1.00;;;19.90;1.00;;;;;;4844595;29;20054;-42
2023/05/18 02:06:17;;;;;;;5.82;0.47;;;19.80;1.00;;;;;;4843075;29;20061;-42
2023/05/18 02:08:44;;;;;;;2.75;0.70;;;19.90;1.00;;;;;;4843052;29;20041;-42
2023/05/18 02:11:11;;;;;;;2.67;1.20;;;19.90;1.00;;;;;;4842911;29;20594;-42
2023/05/18 02:13:39;;;;;;;2.45;0.60;;;19.90;1.00;;;;;;4842816;29;20442;-41
2023/05/18 02:16:06;;;;;;;2.45;0.47;;;19.80;1.00;;;;;;4844160;29;20057;-42
2023/05/18 02:18:35;;;;;;;1.50;0.63;;;19.80;1.00;;;;;;4844444;29;20050;-41
2023/05/18 02:21:02;;;;;;;3.45;0.65;;;19.80;1.00;;;;;;4842935;29;20562;-41
2023/05/18 02:23:30;;;;;;;2.72;0.70;;;19.80;1.00;;;;;;4842519;29;20507;-41
2023/05/18 02:25:57;;;;;;;2.85;0.57;;;19.80;1.00;;;;;;4837033;29;20054;-41
2023/05/18 02:28:24;;;;;;;1.50;0.52;;;19.80;1.00;;;;;;4841824;29;20041;-41
2023/05/18 02:30:51;;;;;;;1.50;0.57;;;19.80;1.00;;;;;;4842390;29;20046;-41
2023/05/18 02:33:18;;;;;;;1.45;0.60;;;19.70;1.00;;;;;;4842188;29;20056;-41
2023/05/18 02:35:45;;;;;;;2.20;0.73;;;19.70;1.00;;;;;;4842378;29;20094;-42
2023/05/18 02:38:12;;;;;;;1.67;0.80;;;19.70;1.00;;;;;;4837143;29;20050;-43
2023/05/18 02:40:39;;;;;;;1.30;0.50;;;19.70;1.00;;;;;;4825262;29;20066;-43
2023/05/18 02:43:05;;;;;;;2.38;0.70;;;19.70;1.00;;;;;;4840479;29;20106;-43
2023/05/18 02:45:32;;;;;;;1.40;0.47;;;19.70;1.00;;;;;;4842269;29;20046;-44
2023/05/18 02:48:00;;;;;;;1.48;0.32;;;19.70;1.00;;;;;;4842155;29;20052;-42
2023/05/18 02:50:27;;;;;;;2.20;0.55;;;19.60;1.00;;;;;;4842199;29;20066;-42
2023/05/18 02:52:55;;;;;;;3.92;0.60;;;19.60;1.00;;;;;;4842256;29;20046;-43
2023/05/18 02:55:22;;;;;;;2.15;0.77;;;19.60;1.00;;;;;;4842099;29;20057;-41
2023/05/18 02:58:03;;;;;;;2.63;0.52;;;19.60;1.00;;;;;;4841941;29;20514;-43
2023/05/18 03:00:53;;;;;;;2.67;0.68;;;19.60;1.00;;;;;;4829854;29;20433;-43
2023/05/18 03:03:22;;;;;;;1.58;0.60;;;19.60;1.00;;;;;;4843063;29;20050;-42
2023/05/18 03:05:52;;;;;;;2.33;0.80;;;19.60;1.00;;;;;;4841612;29;20050;-43
2023/05/18 03:08:21;;;;;;;0.75;0.30;;;19.60;1.00;;;;;;4841427;29;20494;-42
2023/05/18 03:10:49;;;;;;;2.25;0.73;;;19.50;1.00;;;;;;4842650;29;20046;-43
2023/05/18 03:13:16;;;;;;;2.47;0.68;;;19.50;1.00;;;;;;4841279;29;20050;-43
2023/05/18 03:15:45;;;;;;;1.98;0.45;;;19.50;1.00;;;;;;4841720;29;20065;-43
2023/05/18 03:18:13;;;;;;;2.30;0.60;;;19.50;1.00;;;;;;4842217;29;20054;-44
2023/05/18 03:20:39;;;;;;;2.70;0.70;;;19.50;1.00;;;;;;4841959;29;20046;-43
2023/05/18 03:23:06;;;;;;;5.85;1.35;;;19.50;1.00;;;;;;4841777;29;20466;-44
2023/05/18 03:25:36;;;;;;;1.45;0.47;;;19.50;1.00;;;;;;4837611;29;20498;-42
2023/05/18 03:28:04;;;;;;;1.58;0.52;;;19.50;1.00;;;;;;4837894;29;20042;-44
2023/05/18 03:30:34;;;;;;;2.78;0.80;;;19.50;1.00;;;;;;4843149;29;20547;-42
2023/05/18 03:33:02;;;;;;;1.98;0.50;;;19.40;1.00;;;;;;4841605;29;20066;-43
2023/05/18 03:35:29;;;;;;;3.42;0.70;;;19.50;1.00;;;;;;4841401;29;20196;-43
2023/05/18 03:37:56;;;;;;;2.15;0.80;;;19.50;1.00;;;;;;4842799;29;20049;-43
2023/05/18 03:40:23;;;;;;;1.42;0.38;;;19.50;1.00;;;;;;4841146;29;20101;-42
2023/05/18 03:42:50;;;;;;;2.15;0.77;;;19.40;1.00;;;;;;4841391;29;20114;-44
2023/05/18 03:45:17;;;;;;;1.65;0.50;;;19.40;1.00;;;;;;4841243;29;20046;-44
2023/05/18 03:47:45;;;;;;;3.35;0.40;;;19.40;1.00;;;;;;4840478;29;20418;-43
2023/05/18 03:50:12;;;;;;;2.90;0.60;;;19.40;1.00;;;;;;4840550;29;20046;-43
2023/05/18 03:52:40;;;;;;;2.65;0.60;;;19.40;1.00;;;;;;4840898;29;20078;-42
2023/05/18 03:55:07;;;;;;;3.03;0.75;;;19.40;1.00;;;;;;4840008;29;20076;-44
2023/05/18 03:57:35;;;;;;;1.77;0.80;;;19.40;1.00;;;;;;4842275;29;20106;-43
2023/05/18 04:00:08;;;;;;;1.55;0.40;;;19.30;1.00;;;;;;4841055;29;20396;-45
2023/05/18 04:02:42;;;;;;;2.15;0.60;;;19.30;1.00;;;;;;4843628;29;20561;-45
2023/05/18 04:05:11;;;;;;;1.02;0.40;;;19.30;1.00;;;;;;4841253;29;20170;-44
2023/05/18 04:07:42;;;;;;;3.33;0.60;;;19.30;1.00;;;;;;4842388;29;20548;-43
2023/05/18 04:10:11;;;;;;;2.05;0.73;;;19.30;1.00;;;;;;4841655;29;20372;-43
2023/05/18 04:12:39;;;;;;;2.22;0.82;;;19.30;1.00;;;;;;4840130;29;20053;-43
2023/05/18 04:15:07;;;;;;;3.88;0.73;;;19.30;1.00;;;;;;4839816;29;20054;-44
2023/05/18 04:17:34;;;;;;;2.30;0.52;;;19.30;1.00;;;;;;4839800;29;20041;-43
2023/05/18 04:20:10;;;;;;;2.15;0.60;;;19.30;1.00;;;;;;4840012;29;20502;-43
2023/05/18 04:22:42;;;;;;;2.42;0.40;;;19.30;1.00;;;;;;4840210;29;20109;-42
2023/05/18 04:25:12;;;;;;;2.90;0.60;;;19.20;1.00;;;;;;4843651;29;20050;-44
2023/05/18 04:27:40;;;;;;;3.75;0.40;;;19.20;1.00;;;;;;4832270;29;20046;-47
2023/05/18 04:30:12;;;;;;;1.70;0.50;;;19.20;1.00;;;;;;4845411;29;20485;-44
2023/05/18 04:32:41;;;;;;;3.00;0.45;;;19.20;1.00;;;;;;4845103;29;20138;-43
2023/05/18 04:35:10;;;;;;;2.72;1.08;;;19.20;1.00;;;;;;4844696;29;20046;-48
2023/05/18 04:37:41;;;;;;;1.65;0.40;;;19.20;1.00;;;;;;4844545;29;20050;-43
2023/05/18 04:40:12;;;;;;;2.35;0.50;;;19.20;1.00;;;;;;4844528;29;20054;-44
2023/05/18 04:42:46;;;;;;;1.70;0.52;;;19.20;1.00;;;;;;4844009;29;20141;-42
2023/05/18 04:45:24;;;;;;;2.20;1.00;;;19.20;1.00;;;;;;4843610;29;20054;-47
2023/05/18 04:47:53;;;;;;;1.48;0.50;;;19.20;1.00;;;;;;4843990;29;20046;-42
2023/05/18 04:50:24;;;;;;;2.08;0.82;;;19.20;1.00;;;;;;4843560;29;20134;-42
2023/05/18 04:52:52;;;;;;;1.10;0.40;;;19.10;1.00;;;;;;4844692;29;20045;-42
2023/05/18 04:55:24;;;;;;;3.50;0.73;;;19.10;1.00;;;;;;4843215;29;20042;-43
2023/05/18 04:57:59;;;;;;;2.55;0.50;;;19.10;1.00;;;;;;4843977;29;20112;-44
2023/05/18 05:00:27;;;;;;;3.35;0.80;;;19.10;1.00;;;;;;4844893;29;20451;-43
2023/05/18 05:02:56;;;;;;;1.13;0.60;;;19.10;1.00;;;;;;4844460;29;20042;-43
2023/05/18 05:05:24;;;;;;;1.25;0.30;;;19.10;1.00;;;;;;4843188;29;20046;-43
2023/05/18 05:07:52;;;;;;;2.80;0.70;;;19.10;1.00;;;;;;4843140;29;20529;-43
2023/05/18 05:10:20;;;;;;;3.10;0.75;;;19.10;1.00;;;;;;4844660;29;20042;-43
2023/05/18 05:12:50;;;;;;;1.95;0.70;;;19.10;1.00;;;;;;4843372;29;20042;-45
2023/05/18 05:15:18;;;;;;;1.77;0.50;;;19.10;1.00;;;;;;4842960;29;20526;-43
2023/05/18 05:17:48;;;;;;;1.95;0.77;;;19.00;1.00;;;;;;4842950;29;20037;-45
2023/05/18 05:20:15;;;;;;;2.80;0.65;;;19.10;1.00;;;;;;4842981;29;20049;-43
2023/05/18 05:22:42;;;;;;;2.55;0.80;;;19.10;1.00;;;;;;4842817;29;20045;-43
2023/05/18 05:25:11;;;;;;;1.08;0.40;;;19.10;1.00;;;;;;4842628;29;21121;-43
2023/05/18 05:27:38;;;;;;;2.13;0.47;;;19.00;1.00;;;;;;4827960;29;20102;-43
2023/05/18 05:30:06;;;;;;;1.60;0.60;;;19.00;1.00;;;;;;4842893;29;20137;-43
2023/05/18 05:32:35;;;;;;;1.08;0.32;;;19.00;1.00;;;;;;4842688;29;20045;-43
2023/05/18 05:35:04;;;;;;;1.80;0.95;;;19.00;1.00;;;;;;4842395;29;20148;-43
2023/05/18 05:37:32;;;;;;;1.60;0.55;;;19.00;1.00;;;;;;4842440;29;20160;-43
2023/05/18 05:39:59;;;;;;;3.63;0.55;;;19.00;1.00;;;;;;4842445;29;20054;-44
2023/05/18 05:42:28;;;;;;;1.83;0.50;;;19.00;1.00;;;;;;4843103;29;20053;-43
2023/05/18 05:44:57;;;;;;;2.35;0.70;;;19.00;1.00;;;;;;4842800;29;20503;-43
2023/05/18 05:47:25;;;;;;;1.70;0.52;;;19.00;1.00;;;;;;4843011;29;20054;-43
2023/05/18 05:49:52;;;;;;;2.22;0.73;;;19.00;1.00;;;;;;4830379;29;20050;-42
2023/05/18 05:52:19;;;;;;;1.80;0.32;;;18.90;1.00;;;;;;4840457;29;20042;-43
2023/05/18 05:54:46;;;;;;;1.20;0.40;;;19.00;1.00;;;;;;4842513;29;20042;-43
2023/05/18 05:57:14;;;;;;;1.95;0.50;;;19.00;1.00;;;;;;4841993;29;20046;-43
2023/05/18 05:59:41;;;;;;;1.38;0.35;;;19.00;1.00;;;;;;4842350;29;20141;-43
2023/05/18 06:02:08;;;;;;;1.92;0.70;;;18.90;1.00;;;;;;4842430;29;20082;-45
2023/05/18 06:04:35;;;;;;;2.97;0.85;;;19.00;1.00;;;;;;4841911;29;20058;-42
2023/05/18 06:07:02;;;;;;;3.25;0.50;;;19.00;1.00;;;;;;4835882;29;20566;-43
2023/05/18 06:09:29;;;;;;;2.08;0.95;;;19.00;1.00;;;;;;4841956;29;20451;-42
2023/05/18 06:11:56;;;;;;;2.53;0.65;;;18.90;1.00;;;;;;4842355;29;20033;-42
2023/05/18 06:14:24;;;;;;;1.58;0.70;;;18.90;1.00;;;;;;4826540;29;20046;-42
2023/05/18 06:16:52;;;;;;;1.33;0.77;;;19.00;1.00;;;;;;4841997;29;20057;-43
2023/05/18 06:19:20;;;;;;;2.33;0.68;;;19.00;1.00;;;;;;4841966;29;20520;-42
2023/05/18 06:21:48;;;;;;;1.20;0.43;;;18.90;1.00;;;;;;4841922;29;20084;-42
2023/05/18 06:24:16;;;;;;;1.38;0.40;;;18.90;1.00;;;;;;4841624;29;20046;-42
2023/05/18 06:26:52;;;;;;;2.17;0.52;;;18.90;1.00;;;;;;4834005;29;20054;-42
2023/05/18 06:29:44;;;;;;;2.40;0.77;;;18.90;1.00;;;;;;4841590;29;20046;-42
2023/05/18 06:32:37;;;;;;;0.90;0.28;;;18.90;1.00;;;;;;4840706;29;20072;-43
2023/05/18 06:35:05;;;;;;;2.15;0.50;;;18.90;1.00;;;;;;4841385;29;20050;-42
2023/05/18 06:37:32;;;;;;;2.28;0.68;;;18.90;1.00;;;;;;4841290;29;20046;-43
2023/05/18 06:39:59;;;;;;;2.40;0.60;;;18.90;1.00;;;;;;4841548;29;20100;-43
2023/05/18 06:42:26;;;;;;;2.67;0.85;;;18.90;1.00;;;;;;4832217;29;20404;-42
2023/05/18 06:45:06;;;;;;;1.73;0.40;;;18.90;1.00;;;;;;4821147;29;20472;-42
2023/05/18 06:47:51;;;;;;;5.05;1.58;;;18.90;1.00;;;;;;4816222;29;20855;-42
2023/05/18 06:50:18;;;;;;;3.25;0.75;;;18.90;1.00;;;;;;4819745;29;20062;-44
2023/05/18 06:52:45;;;;;;;5.43;0.60;;;18.90;1.00;;;;;;4840942;29;20494;-42
2023/05/18 06:55:12;;;;;;;2.88;0.70;;;18.90;1.00;;;;;;4828297;29;20495;-44
2023/05/18 06:57:39;;;;;;;10.45;1.98;;;18.90;1.00;;;;;;4837264;29;20704;-43
2023/05/18 07:00:07;;;;;;;7.30;1.00;;;18.80;1.00;;;;;;4831101;29;20141;-43
2023/05/18 07:02:34;;;;;;;6.15;0.80;;;18.80;1.00;;;;;;4829003;29;20137;-43
2023/05/18 07:05:04;;;;;;;6.53;1.05;;;18.70;1.00;;;;;;4822778;29;20074;-43
2023/05/18 07:07:31;;;;;;;4.90;1.30;;;18.70;1.00;;;;;;4824039;29;20143;-46
2023/05/18 07:09:58;;;;;;;4.57;1.38;;;18.80;1.00;;;;;;4835217;29;20048;-44
2023/05/18 07:12:25;;;;;;;6.55;0.88;;;18.70;1.00;;;;;;4840360;29;20386;-44
2023/05/18 07:14:52;;;;;;;2.83;0.70;;;18.70;1.00;;;;;;4830721;29;20138;-43
2023/05/18 07:17:19;;;;;;;2.30;1.08;;;18.80;1.00;;;;;;4825200;29;20054;-43
2023/05/18 07:19:45;;;;;;;5.72;1.20;;;18.80;1.00;;;;;;4832993;29;20050;-43
2023/05/18 07:22:12;;;;;;;2.40;0.88;;;18.70;1.00;;;;;;4831521;29;20049;-43
2023/05/18 07:24:39;;;;;;;8.45;1.35;;;18.70;1.00;;;;;;4828440;29;20058;-43
2023/05/18 07:27:06;;;;;;;11.35;1.92;;;18.70;1.00;;;;;;4824328;29;20043;-43
2023/05/18 07:29:33;;;;;;;2.97;0.80;;;18.80;1.00;;;;;;4832913;29;20129;-43
2023/05/18 07:31:59;;;;;;;2.08;0.68;;;18.80;1.00;;;;;;4826873;29;20050;-44
2023/05/18 07:34:27;;;;;;;4.22;1.13;;;18.80;1.00;;;;;;4826860;29;20046;-43
2023/05/18 07:36:53;;;;;;;6.85;1.80;;;18.80;1.00;;;;;;4830075;29;20065;-43
2023/05/18 07:39:27;;;;;;;2.22;0.63;;;18.80;1.00;;;;;;4825989;29;20054;-43
2023/05/18 07:41:55;;;;;;;2.17;0.60;;;18.80;1.00;;;;;;4827285;29;20043;-42
2023/05/18 07:44:21;;;;;;;3.50;0.80;;;18.80;1.00;;;;;;4831090;29;20038;-43
2023/05/18 07:46:48;;;;;;;1.30;0.63;;;18.80;1.00;;;;;;4825932;29;20042;-43
2023/05/18 07:49:15;;;;;;;4.80;1.00;;;18.80;1.00;;;;;;4821214;29;20034;-42
2023/05/18 07:51:42;;;;;;;4.30;0.93;;;18.80;1.00;;;;;;4830911;29;20495;-43
2023/05/18 07:54:09;;;;;;;1.48;0.85;;;18.80;1.00;;;;;;4831981;29;20053;-42
2023/05/18 07:56:35;;;;;;;4.80;1.10;;;18.90;1.00;;;;;;4818745;29;20121;-43
2023/05/18 07:59:02;;;;;;;3.75;1.35;;;18.90;1.00;;;;;;4821634;29;20045;-44
2023/05/18 08:01:30;;;;;;;2.00;0.77;;;18.80;1.00;;;;;;4831982;29;20060;-43
2023/05/18 08:03:57;;;;;;;3.78;0.43;;;18.80;1.00;;;;;;4840982;29;20084;-43
2023/05/18 08:06:24;;;;;;;3.78;1.20;;;18.80;1.00;;;;;;4840144;29;20098;-43
2023/05/18 08:08:51;;;;;;;2.50;0.63;;;18.90;1.00;;;;;;4841289;29;20056;-43
2023/05/18 08:11:18;;;;;;;2.35;0.50;;;18.90;1.00;;;;;;4841461;29;20410;-43
2023/05/18 08:13:45;;;;;;;3.38;1.10;;;18.90;1.00;;;;;;4841349;29;20042;-44
2023/05/18 08:16:12;;;;;;;3.38;0.70;;;18.90;1.00;;;;;;4834823;29;20125;-43
2023/05/18 08:18:39;;;;;;;4.78;0.90;;;18.90;1.00;;;;;;4840006;29;20073;-43
2023/05/18 08:21:09;;;;;;;2.47;1.08;;;18.90;1.00;;;;;;4832605;29;20054;-42
2023/05/18 08:23:36;;;;;;;5.28;0.80;;;18.90;1.00;;;;;;4827583;29;20050;-42
2023/05/18 08:26:03;;;;;;;2.17;0.50;;;18.90;1.00;;;;;;4833912;29;20068;-42
2023/05/18 08:28:31;;;;;;;7.15;0.93;;;18.90;1.00;;;;;;4841000;29;20046;-42
2023/05/18 08:30:57;;;;;;;5.25;0.93;;;18.90;1.00;;;;;;4826056;29;20057;-43
2023/05/18 08:33:24;;;;;;;6.35;0.85;;;18.90;1.00;;;;;;4820939;29;20039;-43
2023/05/18 08:35:52;;;;;;;2.17;0.60;;;18.90;1.00;;;;;;4825041;29;20483;-42
2023/05/18 08:38:19;;;;;;;2.55;0.95;;;18.90;1.00;;;;;;4826841;29;20115;-42
2023/05/18 08:40:54;;;;;;;4.43;1.00;;;19.00;1.00;;;;;;4831070;29;20047;-43
2023/05/18 08:43:26;;;;;;;3.78;0.80;;;18.90;1.00;;;;;;4834290;29;20125;-42
2023/05/18 08:46:24;;;;;;;2.47;0.95;;;19.00;1.00;;;;;;4823466;29;20133;-42
2023/05/18 08:48:52;;;;;;;7.10;0.98;;;18.90;1.00;;;;;;4829651;29;20439;-42
2023/05/18 08:51:20;;;;;;;1.20;0.60;;;19.00;1.00;;;;;;4828738;29;20483;-43
2023/05/18 08:53:52;;;;;;;2.92;0.60;;;18.90;1.00;;;;;;4833428;29;20443;-42
2023/05/18 08:56:22;;;;;;;2.15;0.80;;;18.90;1.00;;;;;;4837124;29;20038;-42
2023/05/18 08:58:51;;;;;;;4.50;0.85;;;18.90;1.00;;;;;;4819685;29;20050;-42
2023/05/18 09:01:18;;;;;;;3.10;0.57;;;19.00;1.00;;;;;;4835094;29;20046;-42
2023/05/18 09:03:48;;;;;;;3.95;0.65;;;18.90;1.00;;;;;;4832507;29;20082;-43
2023/05/18 09:06:15;;;;;;;5.10;2.03;;;18.90;1.00;;;;;;4832537;29;20045;-42
2023/05/18 09:08:44;;;;;;;2.67;1.00;;;19.00;1.00;;;;;;4830926;29;20042;-43
2023/05/18 09:11:12;;;;;;;3.63;1.10;;;19.00;1.00;;;;;;4828967;29;20053;-42
2023/05/18 09:13:39;;;;;;;2.20;0.95;;;19.00;1.00;;;;;;4837020;29;20295;-43
2023/05/18 09:16:06;;;;;;;0.93;0.57;;;19.00;1.00;;;;;;4837406;29;20073;-42
2023/05/18 09:18:34;;;;;;;3.38;1.10;;;19.00;1.00;;;;;;4833629;29;20121;-42
2023/05/18 09:21:01;;;;;;;2.58;0.57;;;19.00;1.00;;;;;;4844005;29;20052;-42
2023/05/18 09:23:29;;;;;;;1.33;0.50;;;19.00;1.00;;;;;;4844048;29;20058;-42
2023/05/18 09:25:58;;;;;;;1.75;0.95;;;19.00;1.00;;;;;;4843920;29;20124;-42
2023/05/18 09:28:39;;;;;;;4.53;0.75;;;19.00;1.00;;;;;;4836289;29;20124;-42
2023/05/18 09:31:11;;;;;;;2.90;0.85;;;19.00;1.00;;;;;;4843973;29;20037;-42
2023/05/18 09:33:39;;;;;;;3.00;0.63;;;19.00;1.00;;;;;;4836244;29;20042;-42
2023/05/18 09:36:08;;;;;;;3.97;1.00;;;19.00;1.00;;;;;;4836323;29;20053;-43
2023/05/18 09:38:37;;;;;;;2.58;1.48;;;19.00;1.00;;;;;;4842404;29;20099;-42
2023/05/18 09:41:09;;;;;;;2.63;0.70;;;19.00;1.00;;;;;;4828386;29;20043;-42
2023/05/18 09:43:37;;;;;;;2.55;0.88;;;19.00;1.00;;;;;;4833150;29;20360;-42
2023/05/18 09:46:07;;;;;;;1.48;0.52;;;19.00;1.00;;;;;;4830372;29;20132;-42
2023/05/18 09:48:54;;;;;;;1.75;0.77;;;19.00;1.00;;;;;;4827208;29;20492;-42
2023/05/18 09:51:23;;;;;;;1.60;0.90;;;19.00;1.00;;;;;;4835393;29;20042;-42
2023/05/18 09:53:56;;;;;;;2.42;0.52;;;19.10;1.00;;;;;;4843283;29;20125;-44
2023/05/18 09:56:25;;;;;;;1.88;0.55;;;19.00;1.00;;;;;;4839125;29;20403;-42
2023/05/18 09:58:52;;;;;;;2.03;0.85;;;19.00;1.00;;;;;;4829068;29;20038;-43
2023/05/18 10:01:19;;;;;;;2.90;0.77;;;19.00;1.00;;;;;;4839557;29;20494;-42
2023/05/18 10:03:48;;;;;;;1.60;0.70;;;19.00;1.00;;;;;;4842669;29;20057;-43
2023/05/18 10:06:20;;;;;;;2.40;0.60;;;19.10;1.00;;;;;;4841931;29;20050;-42
2023/05/18 10:08:47;;;;;;;3.30;0.82;;;19.00;1.00;;;;;;4839018;29;20054;-43
2023/05/18 10:11:20;;;;;;;2.67;1.20;;;19.00;1.00;;;;;;4836536;29;20049;-42
2023/05/18 10:13:52;;;;;;;;;;;19.00;1.00;;;;;;4834412;29;20073;-43
2023/05/18 10:16:19;;;;;;;2.65;0.40;;;19.10;1.00;;;;;;4843272;29;19924;-44
2023/05/18 10:18:47;;;;;;;0.63;0.38;;;19.00;1.00;;;;;;4835133;29;20052;-42
2023/05/18 10:21:15;;;;;;;2.50;0.80;;;19.00;1.00;;;;;;4830964;29;20046;-43
2023/05/18 10:23:45;;;;;;;1.63;0.90;;;19.00;1.00;;;;;;4837827;29;20061;-42
2023/05/18 10:26:15;;;;;;;2.83;0.98;;;19.10;1.00;;;;;;4832869;29;20411;-42
2023/05/18 10:28:44;;;;;;;4.97;0.70;;;19.10;1.00;;;;;;4841396;29;20555;-42
2023/05/18 10:31:14;;;;;;;2.05;0.60;;;19.10;1.00;;;;;;4832245;29;20042;-42
2023/05/18 10:33:42;;;;;;;1.92;0.55;;;19.10;1.00;;;;;;4839430;29;20129;-43
2023/05/18 10:36:10;;;;;;;3.15;1.10;;;19.10;1.00;;;;;;4832253;29;20038;-42
2023/05/18 10:38:42;;;;;;;1.63;0.73;;;19.10;1.00;;;;;;4836064;29;20050;-42
2023/05/18 10:41:10;;;;;;;2.15;0.70;;;19.10;1.00;;;;;;4842744;29;20053;-42
2023/05/18 10:43:39;;;;;;;2.80;0.82;;;19.10;1.00;;;;;;4841599;29;20127;-46
2023/05/18 10:46:07;;;;;;;2.13;1.05;;;19.10;1.00;;;;;;4826205;29;20490;-42
2023/05/18 10:48:39;;;;;;;2.85;0.50;;;19.10;1.00;;;;;;4830999;29;20519;-42
2023/05/18 10:51:07;;;;;;;4.13;0.82;;;19.10;1.00;;;;;;4828854;29;20490;-42
2023/05/18 10:53:35;;;;;;;5.78;1.25;;;19.10;1.00;;;;;;4828926;29;20095;-42
2023/05/18 10:56:02;;;;;;;1.42;0.43;;;19.10;1.00;;;;;;4837128;29;20110;-42
2023/05/18 10:58:30;;;;;;;3.22;0.60;;;19.10;1.00;;;;;;4835929;29;20046;-42
2023/05/18 11:01:00;;;;;;;2.55;0.82;;;19.20;1.00;;;;;;4823898;29;20054;-42
2023/05/18 11:03:27;;;;;;;2.42;0.77;;;19.10;1.00;;;;;;4817880;29;20053;-42
2023/05/18 11:06:09;;;;;;;2.00;1.25;;;19.20;1.00;;;;;;4823586;29;20513;-42
2023/05/18 11:08:49;;;;;;;4.25;0.90;;;19.10;1.00;;;;;;4823475;29;20073;-44
2023/05/18 11:11:16;;;;;;;2.30;1.40;;;19.20;1.00;;;;;;4836521;29;20052;-43
2023/05/18 11:13:50;;;;;;;5.03;1.25;;;19.10;1.00;;;;;;4830043;29;20050;-43
2023/05/18 11:16:18;;;;;;;4.55;0.85;;;19.10;1.00;;;;;;4831321;29;20410;-42
2023/05/18 11:18:50;;;;;;;2.40;0.80;;;19.10;1.00;;;;;;4836111;29;20056;-43
2023/05/18 11:21:19;;;;;;;1.63;0.88;;;19.10;1.00;;;;;;4840463;29;20053;-42
2023/05/18 11:24:32;;;;;;;5.15;0.75;;;19.10;1.00;;;;;;4838900;29;20062;-43
2023/05/18 11:27:12;;;;;;;1.10;0.40;;;19.20;1.00;;;;;;4840039;29;20062;-42
2023/05/18 11:29:40;;;;;;;2.35;0.63;;;19.10;1.00;;;;;;4834560;29;20053;-43
2023/05/18 11:32:26;;;;;;;2.28;0.55;;;19.10;1.00;;;;;;4841785;29;20478;-43
2023/05/18 11:34:57;;;;;;;2.63;0.68;;;19.20;1.00;;;;;;4834026;29;20090;-43
2023/05/18 11:37:40;;;;;;;5.38;1.30;;;19.10;1.00;;;;;;4841919;29;20041;-43
2023/05/18 11:40:12;;;;;;;2.43;0.70;;;19.10;1.00;;;;;;4829148;29;20046;-44
2023/05/18 11:42:39;;;;;;;4.22;1.08;;;19.20;1.00;;;;;;4841621;29;20410;-43
2023/05/18 11:45:07;;;;;;;3.22;1.75;;;19.20;1.00;;;;;;4841395;29;20098;-43
2023/05/18 11:47:36;;;;;;;3.47;0.90;;;19.20;1.00;;;;;;4829595;29;20081;-43
2023/05/18 11:50:07;;;;;;;3.35;0.80;;;19.20;1.00;;;;;;4841747;29;20125;-43
2023/05/18 11:52:46;;;;;;;2.70;1.20;;;19.10;1.00;;;;;;4833346;29;20046;-43
2023/05/18 11:55:15;;;;;;;3.53;0.90;;;19.20;1.00;;;;;;4826847;29;20483;-43
2023/05/18 11:57:44;;;;;;;4.13;0.80;;;19.10;1.00;;;;;;4820680;29;20403;-43
2023/05/18 12:00:11;;;;;;;2.83;0.60;;;19.10;1.00;;;;;;4833736;29;20053;-43
2023/05/18 12:02:43;;;;;;;4.10;1.45;;;19.10;1.00;;;;;;4824776;29;20111;-43
2023/05/18 12:05:10;;;;;;;6.05;1.10;;;19.20;1.00;;;;;;4827824;29;20049;-43
2023/05/18 12:07:38;;;;;;;4.30;1.40;;;19.20;1.00;;;;;;4822722;29;20121;-43
2023/05/18 12:10:10;;;;;;;3.00;0.95;;;19.10;1.00;;;;;;4818590;29;20046;-45
2023/05/18 12:12:38;;;;;;;4.63;0.80;;;19.20;1.00;;;;;;4830925;29;20053;-45
2023/05/18 12:15:10;;;;;;;4.07;0.63;;;19.10;1.00;;;;;;4829760;29;20034;-43
2023/05/18 12:17:44;;;;;;;3.40;1.20;;;19.20;1.00;;;;;;4837599;29;20073;-43
2023/05/18 12:20:13;;;;;;;8.25;1.40;;;19.20;1.00;;;;;;4839810;29;20042;-42
2023/05/18 12:22:45;;;;;;;3.65;1.33;;;19.20;1.00;;;;;;4831283;29;20081;-45
2023/05/18 12:25:12;;;;;;;4.03;1.88;;;19.20;1.00;;;;;;4833612;29;20060;-44
2023/05/18 12:27:40;;;;;;;2.20;1.05;;;19.20;1.00;;;;;;4839220;29;20041;-44
2023/05/18 12:30:11;;;;;;;3.58;0.70;;;19.20;1.00;;;;;;4822783;29;20050;-43
2023/05/18 12:32:38;;;;;;;3.15;0.98;;;19.20;1.00;;;;;;4829508;29;20046;-43
2023/05/18 12:35:07;;;;;;;3.20;0.82;;;19.20;1.00;;;;;;4841196;29;20034;-45
2023/05/18 12:37:41;;;;;;;2.75;1.00;;;19.20;1.00;;;;;;4835684;29;20051;-47
2023/05/18 12:40:16;;;;;;;3.40;1.45;;;19.20;1.00;;;;;;4820103;29;20078;-44
2023/05/18 12:42:53;;;;;;;4.30;0.90;;;19.20;1.00;;;;;;4838380;29;20133;-42
2023/05/18 12:45:22;;;;;;;2.75;1.08;;;19.20;1.00;;;;;;4830759;29;20089;-43
2023/05/18 12:47:53;;;;;;;4.40;1.10;;;19.20;1.00;;;;;;4831083;29;20507;-44
2023/05/18 12:50:23;;;;;;;3.70;0.93;;;19.10;1.00;;;;;;4829906;29;20133;-44
2023/05/18 12:52:51;;;;;;;2.58;1.00;;;19.20;1.00;;;;;;4828274;29;20046;-42
2023/05/18 12:55:22;;;;;;;2.05;1.40;;;19.20;1.00;;;;;;4832084;29;20041;-43
2023/05/18 12:58:03;;;;;;;4.43;1.52;;;19.20;1.00;;;;;;4836017;29;20042;-44
2023/05/18 13:00:34;;;;;;;2.88;0.98;;;19.20;1.00;;;;;;4826020;29;20069;-42
2023/05/18 13:03:08;;;;;;;3.33;0.93;;;19.20;1.00;;;;;;4830715;29;20050;-43
2023/05/18 13:05:42;;;;;;;2.63;0.57;;;19.20;1.00;;;;;;4830027;29;20073;-43
2023/05/18 13:08:20;;;;;;;2.00;0.70;;;19.20;1.00;;;;;;4829564;29;20520;-43
2023/05/18 13:10:48;;;;;;;1.90;0.80;;;19.20;1.00;;;;;;4831792;29;20142;-42
2023/05/18 13:13:27;;;;;;;2.95;0.73;;;19.20;1.00;;;;;;4836450;29;20046;-44